Time;durP1;ratioP1;P1;durP2;ratioP2;P2;SDS_P1;SDS_P2;PMS_P1;PMS_P2;Temp;Humidity;BMP_temperature;BMP_pressure;BME280_temperature;BME280_humidity;BME280_pressure;Samples;Min_cycle;Max_cycle;Signal;HPM_P1;HPM_P2
2022/07/09 03:01:53;;;;;;;0.70;0.60;;;17.80;63.70;;;;;;5473243;23;20494;-72
2022/07/09 03:04:19;;;;;;;0.80;0.60;;;17.70;63.80;;;;;;4955694;29;20483;-71
2022/07/09 03:06:46;;;;;;;0.90;0.60;;;17.70;63.80;;;;;;4955750;29;20934;-72
2022/07/09 03:09:14;;;;;;;0.70;0.50;;;17.80;63.60;;;;;;4955980;29;20550;-72
2022/07/09 03:11:40;;;;;;;1.10;0.73;;;17.80;63.70;;;;;;4955947;29;20885;-72
2022/07/09 03:14:08;;;;;;;0.80;0.70;;;17.80;63.60;;;;;;4955598;29;20957;-73
2022/07/09 03:16:34;;;;;;;0.70;0.60;;;17.80;63.50;;;;;;4957352;29;20462;-72
2022/07/09 03:19:02;;;;;;;0.83;0.80;;;17.90;64.00;;;;;;4955867;29;20526;-72
2022/07/09 03:21:29;;;;;;;0.70;0.70;;;17.90;63.70;;;;;;4955702;29;20542;-72
2022/07/09 03:23:56;;;;;;;0.77;0.70;;;17.90;63.70;;;;;;4955719;29;20495;-72
2022/07/09 03:26:22;;;;;;;0.80;0.60;;;17.90;63.70;;;;;;4955437;29;20946;-73
2022/07/09 03:28:49;;;;;;;0.97;0.87;;;17.90;63.80;;;;;;4955755;28;20501;-72
2022/07/09 03:31:16;;;;;;;0.70;0.60;;;17.90;64.00;;;;;;4955271;29;20977;-72
2022/07/09 03:33:43;;;;;;;0.70;0.67;;;17.90;63.80;;;;;;4955547;28;20546;-73
2022/07/09 03:36:11;;;;;;;0.70;0.60;;;17.90;63.80;;;;;;4955203;29;20454;-72
2022/07/09 03:38:37;;;;;;;0.70;0.53;;;17.90;63.80;;;;;;4955534;29;20451;-72
2022/07/09 03:41:04;;;;;;;0.73;0.63;;;17.90;63.60;;;;;;4955456;29;20600;-72
2022/07/09 03:43:31;;;;;;;0.70;0.60;;;17.90;63.90;;;;;;4955538;28;20502;-72
2022/07/09 03:45:58;;;;;;;0.70;0.60;;;17.80;64.10;;;;;;4955351;29;20483;-72
2022/07/09 03:48:25;;;;;;;0.70;0.70;;;17.60;64.70;;;;;;4955409;29;20821;-72
2022/07/09 03:50:51;;;;;;;0.70;0.60;;;17.40;65.30;;;;;;4955060;29;20826;-72
2022/07/09 03:53:19;;;;;;;0.87;0.87;;;17.30;65.50;;;;;;4955869;29;20487;-72
2022/07/09 03:55:46;;;;;;;0.80;0.70;;;17.20;65.50;;;;;;4955323;29;20450;-72
2022/07/09 03:58:13;;;;;;;0.80;0.70;;;17.20;65.70;;;;;;4955341;29;20478;-71
2022/07/09 04:00:39;;;;;;;0.97;0.80;;;17.10;66.00;;;;;;4955081;29;20505;-72
2022/07/09 04:03:06;;;;;;;0.80;0.77;;;17.00;66.30;;;;;;4955302;29;20506;-72
2022/07/09 04:05:33;;;;;;;0.70;0.70;;;16.80;66.90;;;;;;4955187;29;20538;-72
2022/07/09 04:07:59;;;;;;;0.70;0.70;;;16.60;67.50;;;;;;4955236;29;20502;-72
2022/07/09 04:10:27;;;;;;;0.83;0.60;;;16.60;67.40;;;;;;4954825;29;20510;-71
2022/07/09 04:12:55;;;;;;;0.70;0.60;;;16.70;67.50;;;;;;4955187;29;20450;-72
2022/07/09 04:15:21;;;;;;;0.83;0.60;;;16.70;67.40;;;;;;4955129;29;20502;-72
2022/07/09 04:17:48;;;;;;;0.70;0.70;;;16.70;67.50;;;;;;4955147;29;20451;-72
2022/07/09 04:20:15;;;;;;;0.70;0.63;;;16.80;67.50;;;;;;4954813;29;20823;-72
2022/07/09 04:22:41;;;;;;;0.70;0.67;;;16.80;67.50;;;;;;4954728;29;20990;-72
2022/07/09 04:25:08;;;;;;;0.70;0.60;;;16.90;67.30;;;;;;4954967;29;20486;-72
2022/07/09 04:27:38;;;;;;;0.73;0.70;;;16.90;67.30;;;;;;4955100;29;20497;-72
2022/07/09 04:30:06;;;;;;;0.80;0.70;;;17.00;67.50;;;;;;4955038;29;20462;-72
2022/07/09 04:32:33;;;;;;;1.07;0.80;;;17.00;67.60;;;;;;4954939;29;20532;-71
2022/07/09 04:35:00;;;;;;;0.90;0.70;;;17.00;67.70;;;;;;4955003;29;20888;-72
2022/07/09 04:37:27;;;;;;;0.70;0.63;;;16.90;68.00;;;;;;4955146;29;20510;-71
2022/07/09 04:39:53;;;;;;;0.70;0.70;;;16.90;68.20;;;;;;4955034;28;20486;-71
2022/07/09 04:42:20;;;;;;;0.70;0.57;;;17.00;68.00;;;;;;4954876;29;20525;-72
2022/07/09 04:44:48;;;;;;;0.70;0.70;;;17.00;68.00;;;;;;4954917;29;20897;-71
2022/07/09 04:47:15;;;;;;;0.80;0.77;;;17.10;68.10;;;;;;4958110;28;20455;-71
2022/07/09 04:49:41;;;;;;;1.07;0.70;;;17.00;68.40;;;;;;4958574;29;20451;-71
2022/07/09 04:52:08;;;;;;;0.80;0.70;;;16.90;68.50;;;;;;4958545;29;20643;-72
2022/07/09 04:54:35;;;;;;;0.90;0.70;;;17.00;68.70;;;;;;4958500;29;20442;-72
2022/07/09 04:57:02;;;;;;;0.70;0.70;;;17.10;68.60;;;;;;4958414;29;20451;-72
2022/07/09 04:59:28;;;;;;;0.80;0.73;;;17.30;68.50;;;;;;4958405;29;20450;-72
2022/07/09 05:01:56;;;;;;;0.90;0.70;;;17.40;68.50;;;;;;4958132;29;20545;-72
2022/07/09 05:04:23;;;;;;;0.70;0.70;;;17.60;68.60;;;;;;4958192;29;20901;-72
2022/07/09 05:06:50;;;;;;;0.70;0.70;;;17.70;68.60;;;;;;4957959;29;20945;-72
2022/07/09 05:09:16;;;;;;;0.70;0.60;;;17.70;68.50;;;;;;4957853;29;21009;-72
2022/07/09 05:11:43;;;;;;;0.80;0.70;;;17.60;68.70;;;;;;4958103;29;20530;-72
2022/07/09 05:14:10;;;;;;;0.70;0.60;;;17.60;68.80;;;;;;4958188;29;20476;-72
2022/07/09 05:16:36;;;;;;;0.70;0.70;;;17.60;69.10;;;;;;4958092;29;20505;-72
2022/07/09 05:19:04;;;;;;;0.80;0.70;;;17.80;69.00;;;;;;4958003;29;20506;-72
2022/07/09 05:21:31;;;;;;;2.40;0.70;;;17.90;68.90;;;;;;4957904;29;20470;-72
2022/07/09 05:23:59;;;;;;;1.10;0.70;;;18.10;69.00;;;;;;4957912;29;20454;-74
2022/07/09 05:26:27;;;;;;;0.80;0.70;;;18.20;68.80;;;;;;4957871;29;20494;-72
2022/07/09 05:28:54;;;;;;;0.70;0.60;;;18.30;68.80;;;;;;4957917;28;20455;-73
2022/07/09 05:31:20;;;;;;;0.80;0.70;;;18.50;68.60;;;;;;4957705;29;20470;-73
2022/07/09 05:33:47;;;;;;;0.80;0.80;;;18.60;68.10;;;;;;4957721;29;20455;-73
2022/07/09 05:36:15;;;;;;;0.70;0.60;;;18.60;68.00;;;;;;4957974;29;20530;-72
2022/07/09 05:38:42;;;;;;;0.70;0.60;;;18.40;67.70;;;;;;4957633;29;20439;-73
2022/07/09 05:41:10;;;;;;;1.03;0.67;;;18.40;67.80;;;;;;4957530;29;20527;-71
2022/07/09 05:43:36;;;;;;;0.90;0.60;;;18.60;67.40;;;;;;4957561;28;20451;-72
2022/07/09 05:46:03;;;;;;;0.70;0.70;;;19.00;66.60;;;;;;4957499;29;20537;-71
2022/07/09 05:48:30;;;;;;;1.40;0.70;;;19.40;65.70;;;;;;4957469;29;20447;-72
2022/07/09 05:50:56;;;;;;;0.80;0.70;;;19.60;64.70;;;;;;4957466;29;20470;-72
2022/07/09 05:53:25;;;;;;;0.70;0.60;;;19.90;63.50;;;;;;4957624;29;20502;-72
2022/07/09 05:55:51;;;;;;;1.07;0.70;;;19.80;63.10;;;;;;4957065;29;21009;-73
2022/07/09 05:58:18;;;;;;;0.80;0.60;;;19.30;65.40;;;;;;4956660;28;20506;-72
2022/07/09 06:00:44;;;;;;;0.70;0.60;;;19.40;65.70;;;;;;4957035;29;20475;-72
2022/07/09 06:03:11;;;;;;;0.70;0.67;;;19.50;65.60;;;;;;4957203;29;20435;-73
2022/07/09 06:05:38;;;;;;;0.70;0.70;;;19.50;65.10;;;;;;4957133;29;20482;-72
2022/07/09 06:08:05;;;;;;;0.80;0.70;;;19.30;65.30;;;;;;4957180;28;20538;-72
2022/07/09 06:10:33;;;;;;;0.70;0.60;;;19.40;64.90;;;;;;4957289;28;20459;-72
2022/07/09 06:13:00;;;;;;;0.90;0.73;;;19.20;65.30;;;;;;4956706;29;20947;-73
2022/07/09 06:15:26;;;;;;;0.70;0.60;;;19.30;66.60;;;;;;4956995;29;20454;-73
2022/07/09 06:17:54;;;;;;;0.70;0.60;;;19.20;66.10;;;;;;4956985;29;20486;-73
2022/07/09 06:20:21;;;;;;;0.70;0.60;;;19.20;67.00;;;;;;4957180;29;20558;-74
2022/07/09 06:22:48;;;;;;;0.70;0.70;;;19.40;66.90;;;;;;4956804;29;20526;-73
2022/07/09 06:25:14;;;;;;;0.73;0.70;;;19.70;65.80;;;;;;4956740;29;20829;-73
2022/07/09 06:27:42;;;;;;;0.97;0.67;;;19.80;65.70;;;;;;4956478;29;20865;-73
2022/07/09 06:30:09;;;;;;;0.70;0.60;;;19.80;66.60;;;;;;4956734;29;20450;-73
2022/07/09 06:32:36;;;;;;;0.80;0.80;;;19.90;66.40;;;;;;4956667;28;20555;-73
2022/07/09 06:35:03;;;;;;;0.80;0.60;;;19.90;65.30;;;;;;4956628;29;20518;-73
2022/07/09 06:37:30;;;;;;;0.80;0.70;;;19.90;65.60;;;;;;4956279;29;21022;-72
2022/07/09 06:39:59;;;;;;;0.80;0.70;;;20.20;65.50;;;;;;4956544;29;20513;-73
2022/07/09 06:42:26;;;;;;;0.70;0.60;;;20.40;64.20;;;;;;4956442;29;20518;-72
2022/07/09 06:44:54;;;;;;;0.70;0.63;;;20.60;63.90;;;;;;4956407;29;20489;-72
2022/07/09 06:47:21;;;;;;;0.70;0.60;;;20.40;64.20;;;;;;4956126;29;20934;-74
2022/07/09 06:49:47;;;;;;;0.70;0.60;;;20.20;64.80;;;;;;4956083;29;20944;-74
2022/07/09 06:52:14;;;;;;;0.80;0.60;;;20.50;64.60;;;;;;4956272;29;20463;-74
2022/07/09 06:54:41;;;;;;;0.70;0.67;;;20.40;65.00;;;;;;4956233;29;20458;-74
2022/07/09 06:57:09;;;;;;;0.80;0.70;;;20.30;66.00;;;;;;4956220;29;20455;-73
2022/07/09 06:59:35;;;;;;;0.70;0.60;;;20.60;64.70;;;;;;4956233;29;20550;-74
2022/07/09 07:02:04;;;;;;;0.80;0.60;;;20.80;62.60;;;;;;4955822;29;20479;-73
2022/07/09 07:04:30;;;;;;;0.90;0.70;;;21.20;61.80;;;;;;4956062;29;20489;-74
2022/07/09 07:06:57;;;;;;;0.70;0.67;;;21.50;60.90;;;;;;4955930;29;20490;-74
2022/07/09 07:09:24;;;;;;;0.80;0.60;;;21.50;60.70;;;;;;4955151;28;20447;-74
2022/07/09 07:11:51;;;;;;;0.70;0.60;;;21.70;60.10;;;;;;4955954;29;20481;-75
2022/07/09 07:14:18;;;;;;;0.77;0.60;;;21.60;61.40;;;;;;4955906;29;20447;-75
2022/07/09 07:16:45;;;;;;;0.70;0.60;;;21.90;60.30;;;;;;4955928;29;20451;-75
2022/07/09 07:19:13;;;;;;;0.90;0.60;;;22.30;59.40;;;;;;4955656;29;20961;-75
2022/07/09 07:21:40;;;;;;;0.90;0.70;;;22.10;58.80;;;;;;4955580;29;21053;-75
2022/07/09 07:24:07;;;;;;;0.73;0.60;;;22.20;59.30;;;;;;4955529;29;20854;-75
2022/07/09 07:26:34;;;;;;;0.80;0.67;;;22.50;60.10;;;;;;4955833;29;20836;-75
2022/07/09 07:29:01;;;;;;;1.00;0.90;;;22.60;57.90;;;;;;4955740;29;20481;-75
2022/07/09 07:31:28;;;;;;;0.77;0.63;;;22.60;56.60;;;;;;4955319;29;21057;-74
2022/07/09 07:33:54;;;;;;;0.70;0.60;;;22.70;58.70;;;;;;4955595;29;20447;-75
2022/07/09 07:36:22;;;;;;;0.70;0.57;;;22.70;56.60;;;;;;4955636;29;20819;-75
2022/07/09 07:38:49;;;;;;;0.80;0.60;;;22.60;57.80;;;;;;4955281;29;20455;-75
2022/07/09 07:41:17;;;;;;;0.80;0.60;;;22.60;56.00;;;;;;4955611;29;20561;-75
2022/07/09 07:43:45;;;;;;;0.70;0.70;;;22.70;56.30;;;;;;4955586;29;20811;-75
2022/07/09 07:46:12;;;;;;;0.70;0.60;;;22.80;56.60;;;;;;4955423;29;20483;-74
2022/07/09 07:48:40;;;;;;;0.70;0.50;;;22.80;54.80;;;;;;4955402;29;20446;-75
2022/07/09 07:51:07;;;;;;;0.70;0.57;;;23.10;55.90;;;;;;4955273;29;20570;-75
2022/07/09 07:53:36;;;;;;;0.70;0.50;;;23.40;54.90;;;;;;4955351;29;20447;-75
2022/07/09 07:56:03;;;;;;;0.70;0.60;;;23.70;56.60;;;;;;4955406;28;20478;-75
2022/07/09 07:58:29;;;;;;;0.70;0.50;;;24.00;55.40;;;;;;4955349;29;20497;-75
2022/07/09 08:00:56;;;;;;;0.70;0.50;;;24.00;54.50;;;;;;4955154;29;20475;-75
2022/07/09 08:03:23;;;;;;;0.87;0.70;;;23.70;53.10;;;;;;4955321;29;20439;-75
2022/07/09 08:05:49;;;;;;;0.80;0.60;;;23.60;55.30;;;;;;4955158;29;20482;-75
2022/07/09 08:08:18;;;;;;;0.80;0.70;;;23.50;53.10;;;;;;4955172;29;20502;-75
2022/07/09 08:10:48;;;;;;;0.70;0.60;;;23.40;53.40;;;;;;4955145;29;20471;-75
2022/07/09 08:13:14;;;;;;;0.70;0.60;;;23.40;54.20;;;;;;4955406;29;20455;-75
2022/07/09 08:15:41;;;;;;;1.00;0.60;;;23.50;54.30;;;;;;4955122;29;20446;-74
2022/07/09 08:18:12;;;;;;;0.70;0.60;;;23.70;54.70;;;;;;4955136;29;20885;-75
2022/07/09 08:20:38;;;;;;;0.80;0.60;;;23.70;55.50;;;;;;4955888;28;20478;-75
2022/07/09 08:23:05;;;;;;;0.90;0.60;;;23.60;54.80;;;;;;4958749;29;20971;-75
2022/07/09 08:25:32;;;;;;;1.00;0.80;;;23.80;55.30;;;;;;4958975;29;20483;-75
2022/07/09 08:28:00;;;;;;;0.70;0.63;;;23.80;55.40;;;;;;4958698;29;20935;-75
2022/07/09 08:30:27;;;;;;;0.80;0.60;;;23.80;54.00;;;;;;4958811;29;20446;-76
2022/07/09 08:32:53;;;;;;;0.70;0.60;;;23.80;54.60;;;;;;4958866;29;20490;-75
2022/07/09 08:35:20;;;;;;;0.70;0.60;;;24.00;54.40;;;;;;4958471;29;20495;-75
2022/07/09 08:37:47;;;;;;;0.87;0.60;;;24.10;54.40;;;;;;4958775;29;21010;-76
2022/07/09 08:40:14;;;;;;;1.00;0.60;;;23.60;55.00;;;;;;4959272;29;20502;-75
2022/07/09 08:42:40;;;;;;;0.70;0.70;;;23.70;56.60;;;;;;4958654;29;20466;-75
2022/07/09 08:45:13;;;;;;;0.70;0.50;;;23.70;55.50;;;;;;4958668;29;20472;-75
2022/07/09 08:47:40;;;;;;;0.63;0.50;;;23.70;55.00;;;;;;4958381;29;20986;-74
2022/07/09 08:50:08;;;;;;;0.80;0.60;;;23.90;55.40;;;;;;4958244;29;21013;-75
2022/07/09 08:52:36;;;;;;;0.77;0.63;;;24.00;54.10;;;;;;4958488;29;20525;-75
2022/07/09 08:55:04;;;;;;;0.70;0.60;;;24.20;54.90;;;;;;4958462;29;20454;-75
2022/07/09 08:57:31;;;;;;;0.70;0.70;;;24.10;54.60;;;;;;4958424;29;20507;-75
2022/07/09 08:59:58;;;;;;;0.70;0.60;;;24.10;54.20;;;;;;4958392;29;20489;-75
2022/07/09 09:02:26;;;;;;;0.77;0.60;;;24.40;54.50;;;;;;4957970;29;20490;-75
2022/07/09 09:04:55;;;;;;;0.80;0.70;;;24.50;52.60;;;;;;4958276;29;20457;-75
2022/07/09 09:07:22;;;;;;;1.40;0.70;;;24.20;53.60;;;;;;4958169;29;20517;-75
2022/07/09 09:09:49;;;;;;;0.90;0.60;;;24.50;53.60;;;;;;4958271;29;20537;-75
2022/07/09 09:12:15;;;;;;;0.80;0.70;;;24.80;53.60;;;;;;4958142;29;20557;-75
2022/07/09 09:14:50;;;;;;;0.70;0.60;;;25.00;54.10;;;;;;4958128;29;20873;-75
2022/07/09 09:17:17;;;;;;;0.70;0.50;;;24.30;54.40;;;;;;4959514;29;20523;-75
2022/07/09 09:19:45;;;;;;;0.80;0.73;;;23.80;55.40;;;;;;4957925;29;20450;-74
2022/07/09 09:22:15;;;;;;;0.80;0.60;;;24.10;54.40;;;;;;4957907;29;20471;-75
2022/07/09 09:24:42;;;;;;;0.80;0.60;;;23.80;54.60;;;;;;4957890;29;20432;-74
2022/07/09 09:27:09;;;;;;;1.00;0.60;;;23.60;56.00;;;;;;4957830;29;20635;-74
2022/07/09 09:29:39;;;;;;;0.80;0.60;;;23.70;55.80;;;;;;4957549;29;20826;-75
2022/07/09 09:32:11;;;;;;;0.80;0.60;;;23.60;55.20;;;;;;4957162;28;20471;-74
2022/07/09 09:34:40;;;;;;;0.70;0.60;;;23.90;54.60;;;;;;4957860;29;20527;-75
2022/07/09 09:37:10;;;;;;;0.70;0.60;;;24.40;55.10;;;;;;4957794;29;20447;-73
2022/07/09 09:39:37;;;;;;;0.70;0.60;;;24.50;53.40;;;;;;4957907;29;20458;-73
2022/07/09 09:42:05;;;;;;;0.80;0.60;;;24.70;54.00;;;;;;4957541;29;20508;-71
2022/07/09 09:44:37;;;;;;;0.70;0.70;;;24.90;52.80;;;;;;4957661;28;20447;-70
2022/07/09 09:47:05;;;;;;;0.70;0.60;;;24.90;53.40;;;;;;4957443;29;20478;-71
2022/07/09 09:49:32;;;;;;;0.90;0.60;;;25.30;54.20;;;;;;4957489;29;20455;-71
2022/07/09 09:52:04;;;;;;;0.70;0.60;;;25.70;51.10;;;;;;4957400;29;20475;-71
2022/07/09 09:54:34;;;;;;;1.00;0.60;;;25.90;51.50;;;;;;4957104;29;20919;-71
2022/07/09 09:57:05;;;;;;;0.80;0.60;;;25.60;51.30;;;;;;4957406;29;20431;-71
2022/07/09 09:59:33;;;;;;;0.70;0.60;;;25.40;51.10;;;;;;4957354;29;20439;-71
2022/07/09 10:02:02;;;;;;;0.60;0.50;;;25.40;51.90;;;;;;4957107;29;20537;-71
2022/07/09 10:04:29;;;;;;;0.80;0.60;;;25.50;52.40;;;;;;4957358;29;20442;-76
2022/07/09 10:06:56;;;;;;;0.80;0.63;;;25.40;51.80;;;;;;4957210;29;20974;-75
2022/07/09 10:09:23;;;;;;;0.70;0.60;;;25.10;51.80;;;;;;4957136;29;20451;-76
2022/07/09 10:11:51;;;;;;;0.70;0.60;;;25.10;54.60;;;;;;4957419;29;20467;-75
2022/07/09 10:14:29;;;;;;;0.63;0.60;;;25.20;53.90;;;;;;4957110;28;20451;-75
2022/07/09 10:16:56;;;;;;;0.70;0.60;;;25.50;52.10;;;;;;4957034;29;20438;-76
2022/07/09 10:19:25;;;;;;;0.70;0.60;;;25.90;53.70;;;;;;4956979;29;20438;-75
2022/07/09 10:21:53;;;;;;;1.00;0.60;;;26.20;50.40;;;;;;4956888;29;20534;-73
2022/07/09 10:24:25;;;;;;;0.80;0.70;;;25.90;50.60;;;;;;4956855;29;20502;-74
2022/07/09 10:27:02;;;;;;;0.70;0.60;;;25.80;50.20;;;;;;4956490;29;20997;-73
2022/07/09 10:29:29;;;;;;;0.70;0.50;;;25.80;52.20;;;;;;4956953;28;20443;-76
2022/07/09 10:31:57;;;;;;;0.80;0.60;;;25.80;51.40;;;;;;4956909;29;20478;-74
2022/07/09 10:34:43;;;;;;;0.70;0.70;;;26.10;51.20;;;;;;4956693;29;20502;-76
2022/07/09 10:37:10;;;;;;;0.70;0.60;;;26.10;50.40;;;;;;4956672;29;20435;-73
2022/07/09 10:39:37;;;;;;;0.70;0.60;;;26.00;51.10;;;;;;4956632;29;20451;-74
2022/07/09 10:42:06;;;;;;;0.70;0.60;;;26.00;50.10;;;;;;4956500;29;20475;-75
2022/07/09 10:44:37;;;;;;;0.90;0.60;;;26.30;50.50;;;;;;4956682;28;20447;-75
2022/07/09 10:47:05;;;;;;;2.37;0.60;;;26.70;50.10;;;;;;4956680;29;20479;-75
2022/07/09 10:49:35;;;;;;;0.63;0.50;;;26.80;49.20;;;;;;4956470;29;20458;-75
2022/07/09 10:52:02;;;;;;;1.00;0.67;;;26.80;47.50;;;;;;4956349;29;20518;-75
2022/07/09 10:54:28;;;;;;;1.00;0.60;;;26.60;48.00;;;;;;4956072;29;20450;-73
2022/07/09 10:56:55;;;;;;;0.70;0.60;;;26.40;49.20;;;;;;4956263;29;20446;-73
2022/07/09 10:59:24;;;;;;;0.60;0.50;;;26.20;49.80;;;;;;4956148;29;20862;-73
2022/07/09 11:01:51;;;;;;;0.70;0.60;;;26.10;48.50;;;;;;4955721;29;20994;-73
2022/07/09 11:04:28;;;;;;;0.70;0.50;;;26.20;48.60;;;;;;4956183;29;20451;-73
2022/07/09 11:06:55;;;;;;;0.70;0.60;;;26.20;49.60;;;;;;4955997;29;20478;-73
2022/07/09 11:09:22;;;;;;;0.60;0.50;;;26.20;48.70;;;;;;4955911;29;20503;-73
2022/07/09 11:11:49;;;;;;;0.70;0.60;;;25.90;48.30;;;;;;4955567;29;20966;-74
2022/07/09 11:14:16;;;;;;;0.70;0.60;;;26.10;50.40;;;;;;4955743;29;20958;-75
2022/07/09 11:16:54;;;;;;;0.70;0.57;;;26.20;48.90;;;;;;4956059;28;20885;-78
2022/07/09 11:19:21;;;;;;;0.70;0.57;;;26.30;48.30;;;;;;4956004;29;20435;-76
2022/07/09 11:21:48;;;;;;;0.60;0.50;;;26.20;49.10;;;;;;4955819;29;20474;-77
2022/07/09 11:24:16;;;;;;;1.10;0.60;;;26.20;47.90;;;;;;4955803;29;20454;-77
2022/07/09 11:26:43;;;;;;;0.70;0.60;;;26.30;49.70;;;;;;4955770;29;20490;-76
2022/07/09 11:29:11;;;;;;;0.80;0.60;;;26.40;48.70;;;;;;4955568;29;20870;-75
2022/07/09 11:31:37;;;;;;;0.70;0.60;;;26.50;48.90;;;;;;4955732;29;20483;-74
2022/07/09 11:34:11;;;;;;;0.80;0.60;;;26.50;49.30;;;;;;4955660;29;20451;-74
2022/07/09 11:36:39;;;;;;;0.70;0.60;;;26.30;49.80;;;;;;4955660;29;20431;-74
2022/07/09 11:39:06;;;;;;;1.13;0.60;;;26.40;50.20;;;;;;4955311;28;20939;-74
2022/07/09 11:41:41;;;;;;;0.70;0.60;;;26.30;50.80;;;;;;4955169;29;20482;-74
2022/07/09 11:44:08;;;;;;;0.70;0.50;;;26.30;50.10;;;;;;4955609;29;20434;-74
2022/07/09 11:46:36;;;;;;;1.43;0.70;;;26.30;50.40;;;;;;4955527;28;20515;-74
2022/07/09 11:49:03;;;;;;;0.70;0.50;;;26.20;49.90;;;;;;4955411;29;20457;-74
2022/07/09 11:51:34;;;;;;;0.70;0.60;;;26.20;50.50;;;;;;4955655;29;20481;-74
2022/07/09 11:54:01;;;;;;;0.70;0.70;;;26.30;50.40;;;;;;4955908;29;20447;-74
2022/07/09 11:56:27;;;;;;;1.83;0.63;;;26.40;50.50;;;;;;4954809;28;20455;-74
2022/07/09 11:58:54;;;;;;;1.00;0.70;;;26.50;50.70;;;;;;4955309;29;20526;-74
2022/07/09 12:01:24;;;;;;;0.70;0.60;;;26.80;51.00;;;;;;4954994;29;20530;-74
2022/07/09 12:03:51;;;;;;;0.70;0.60;;;26.90;49.10;;;;;;4955207;29;20950;-74
2022/07/09 12:06:17;;;;;;;0.70;0.60;;;27.00;50.90;;;;;;4955121;29;20450;-74
2022/07/09 12:08:45;;;;;;;0.70;0.60;;;27.00;48.90;;;;;;4955229;29;20497;-74
2022/07/09 12:11:12;;;;;;;0.90;0.77;;;27.20;48.90;;;;;;4955078;29;20471;-74
2022/07/09 12:13:39;;;;;;;0.87;0.60;;;27.30;49.10;;;;;;4954876;29;20455;-74
2022/07/09 12:16:06;;;;;;;0.90;0.50;;;27.40;48.10;;;;;;4955119;29;20451;-74
2022/07/09 12:18:32;;;;;;;0.80;0.60;;;27.40;48.20;;;;;;4955203;28;20534;-74
2022/07/09 12:20:59;;;;;;;0.80;0.60;;;27.40;48.40;;;;;;4955102;29;20467;-74
2022/07/09 12:23:26;;;;;;;0.90;0.70;;;27.50;48.70;;;;;;4955142;29;20505;-74
2022/07/09 12:25:54;;;;;;;0.70;0.60;;;27.40;48.60;;;;;;4954782;29;20803;-74
2022/07/09 12:28:21;;;;;;;0.70;0.60;;;27.40;48.90;;;;;;4955026;29;20542;-74
2022/07/09 12:30:47;;;;;;;0.70;0.50;;;27.60;47.70;;;;;;4954891;29;20474;-74
2022/07/09 12:33:14;;;;;;;0.70;0.50;;;27.60;48.90;;;;;;4955021;29;20830;-74
2022/07/09 12:35:40;;;;;;;0.80;0.60;;;27.30;48.90;;;;;;4954680;29;20509;-74
2022/07/09 12:38:07;;;;;;;0.70;0.50;;;27.50;47.70;;;;;;4954978;29;20501;-74
2022/07/09 12:40:34;;;;;;;0.70;0.50;;;27.70;47.40;;;;;;4954853;29;20450;-74
2022/07/09 12:43:02;;;;;;;0.70;0.60;;;27.80;47.80;;;;;;4954916;29;20454;-74
2022/07/09 12:45:29;;;;;;;0.90;0.60;;;27.60;48.00;;;;;;4954987;28;20541;-74
2022/07/09 12:47:55;;;;;;;0.67;0.50;;;27.50;47.30;;;;;;4954802;29;20479;-74
2022/07/09 12:50:22;;;;;;;0.70;0.60;;;27.60;48.80;;;;;;4954814;29;20451;-74
2022/07/09 12:52:50;;;;;;;1.00;0.60;;;27.70;48.50;;;;;;4954824;29;20502;-74
2022/07/09 12:55:16;;;;;;;0.70;0.50;;;27.60;47.70;;;;;;4954689;29;20478;-74
2022/07/09 12:57:43;;;;;;;0.80;0.60;;;27.70;48.20;;;;;;4954716;29;20518;-74
2022/07/09 13:00:13;;;;;;;0.70;0.50;;;27.70;47.90;;;;;;4954805;29;20451;-74
2022/07/09 13:02:40;;;;;;;0.70;0.60;;;27.80;49.10;;;;;;4954449;29;20479;-74
2022/07/09 13:05:09;;;;;;;0.67;0.50;;;27.70;47.80;;;;;;4954724;29;20561;-74
2022/07/09 13:07:35;;;;;;;0.70;0.60;;;27.50;48.10;;;;;;4956416;28;20518;-74
2022/07/09 13:10:02;;;;;;;0.73;0.57;;;27.60;48.80;;;;;;4958245;29;20918;-74
2022/07/09 13:12:29;;;;;;;0.70;0.50;;;27.70;47.50;;;;;;4958137;29;20470;-74
2022/07/09 13:14:55;;;;;;;2.40;0.60;;;27.70;48.70;;;;;;4958086;29;20482;-74
2022/07/09 13:17:23;;;;;;;0.70;0.60;;;27.80;48.20;;;;;;4958125;28;20514;-74
2022/07/09 13:19:52;;;;;;;0.70;0.57;;;27.70;47.50;;;;;;4958061;29;20447;-75
2022/07/09 13:22:19;;;;;;;0.60;0.50;;;27.60;46.90;;;;;;4957936;29;20481;-74
2022/07/09 13:24:45;;;;;;;0.80;0.60;;;27.60;47.50;;;;;;4957925;29;20455;-74
2022/07/09 13:27:12;;;;;;;0.87;0.53;;;27.70;47.60;;;;;;4957821;29;20478;-74
2022/07/09 13:29:40;;;;;;;0.80;0.60;;;27.70;47.80;;;;;;4957920;29;20558;-74
2022/07/09 13:32:07;;;;;;;1.37;0.50;;;27.70;47.20;;;;;;4957738;29;20529;-74
2022/07/09 13:34:36;;;;;;;0.70;0.60;;;27.30;47.40;;;;;;4957772;29;20812;-74
2022/07/09 13:37:03;;;;;;;0.70;0.60;;;27.30;48.00;;;;;;4957433;29;20455;-74
2022/07/09 13:39:30;;;;;;;0.70;0.50;;;27.40;49.10;;;;;;4958189;29;20799;-74
2022/07/09 13:41:56;;;;;;;0.70;0.50;;;27.50;47.40;;;;;;4957624;29;20546;-75
2022/07/09 13:44:23;;;;;;;0.70;0.60;;;27.60;47.90;;;;;;4958166;29;20513;-74
2022/07/09 13:46:50;;;;;;;0.70;0.63;;;27.50;47.20;;;;;;4957510;29;20874;-74
2022/07/09 13:49:17;;;;;;;0.70;0.50;;;27.60;48.10;;;;;;4957497;29;20863;-74
2022/07/09 13:51:45;;;;;;;0.70;0.50;;;27.10;47.20;;;;;;4957084;29;20899;-74
2022/07/09 13:54:11;;;;;;;0.77;0.57;;;26.70;49.20;;;;;;4957400;29;20490;-74
2022/07/09 13:56:38;;;;;;;0.63;0.50;;;27.00;48.70;;;;;;4957123;29;20947;-74
2022/07/09 13:59:05;;;;;;;0.70;0.57;;;27.10;47.90;;;;;;4957329;29;20866;-74
2022/07/09 14:01:32;;;;;;;0.70;0.60;;;27.20;48.10;;;;;;4956881;29;20842;-74
2022/07/09 14:03:59;;;;;;;0.70;0.60;;;27.30;47.60;;;;;;4957266;29;20533;-74
2022/07/09 14:06:25;;;;;;;0.60;0.50;;;27.30;48.80;;;;;;4957470;29;20451;-74
2022/07/09 14:08:53;;;;;;;1.50;0.83;;;27.50;49.20;;;;;;4957078;29;20542;-74
2022/07/09 14:11:20;;;;;;;0.80;0.60;;;27.60;47.70;;;;;;4957025;29;20525;-74
2022/07/09 14:13:48;;;;;;;0.70;0.60;;;27.70;47.20;;;;;;4957034;29;20446;-74
2022/07/09 14:16:15;;;;;;;1.10;0.50;;;27.80;47.00;;;;;;4957020;29;20455;-74
2022/07/09 14:18:41;;;;;;;0.70;0.50;;;28.00;47.10;;;;;;4956429;28;20447;-74
2022/07/09 14:21:08;;;;;;;0.70;0.60;;;28.20;46.50;;;;;;4956919;29;20471;-74
2022/07/09 14:23:35;;;;;;;0.70;0.60;;;28.20;47.10;;;;;;4956850;29;20459;-74
2022/07/09 14:26:03;;;;;;;0.70;0.60;;;28.20;46.20;;;;;;4956891;28;20506;-75
2022/07/09 14:28:29;;;;;;;0.70;0.50;;;28.20;48.50;;;;;;4956652;29;20478;-74
2022/07/09 14:30:56;;;;;;;0.70;0.50;;;28.30;47.40;;;;;;4956715;29;20569;-74
2022/07/09 14:33:23;;;;;;;0.70;0.60;;;28.20;46.90;;;;;;4956695;29;20877;-74
2022/07/09 14:35:49;;;;;;;0.90;0.70;;;28.50;48.40;;;;;;4956391;28;20997;-74
2022/07/09 14:38:16;;;;;;;0.70;0.50;;;28.70;47.40;;;;;;4956139;29;20458;-74
2022/07/09 14:40:43;;;;;;;0.63;0.50;;;28.70;47.10;;;;;;4956380;29;20546;-74
2022/07/09 14:43:11;;;;;;;0.70;0.50;;;28.80;46.40;;;;;;4956187;29;20806;-74
2022/07/09 14:45:38;;;;;;;0.70;0.60;;;28.90;45.40;;;;;;4956430;29;20459;-74
2022/07/09 14:48:07;;;;;;;0.70;0.60;;;28.80;44.80;;;;;;4956325;29;20514;-74
2022/07/09 14:50:34;;;;;;;0.70;0.60;;;28.90;45.70;;;;;;4956301;29;20530;-74
2022/07/09 14:53:02;;;;;;;0.70;0.60;;;29.10;44.60;;;;;;4955997;29;20963;-74
2022/07/09 14:55:29;;;;;;;0.70;0.50;;;29.20;44.70;;;;;;4956236;29;20450;-74
2022/07/09 14:57:56;;;;;;;0.70;0.60;;;29.20;44.70;;;;;;4956243;29;20451;-75
2022/07/09 15:00:24;;;;;;;0.70;0.60;;;29.00;45.00;;;;;;4956837;29;20967;-73
2022/07/09 15:02:51;;;;;;;0.70;0.60;;;29.00;45.30;;;;;;4955822;29;20467;-74
2022/07/09 15:05:18;;;;;;;0.70;0.60;;;29.00;45.40;;;;;;4955989;29;20541;-74
2022/07/09 15:07:44;;;;;;;0.70;0.60;;;28.90;45.50;;;;;;4955664;29;20980;-73
2022/07/09 15:10:11;;;;;;;0.70;0.60;;;29.00;44.90;;;;;;4955937;29;20514;-74
2022/07/09 15:12:38;;;;;;;0.70;0.60;;;28.80;45.30;;;;;;4955573;29;20521;-73
2022/07/09 15:15:14;;;;;;;0.70;0.60;;;28.70;45.70;;;;;;4956588;29;20455;-73
2022/07/09 15:17:42;;;;;;;0.80;0.60;;;28.60;45.60;;;;;;4955929;29;20473;-72
2022/07/09 15:20:10;;;;;;;0.77;0.67;;;28.60;45.60;;;;;;4955546;29;21005;-73
2022/07/09 15:22:37;;;;;;;1.10;0.70;;;28.50;46.90;;;;;;4955501;28;20998;-72
2022/07/09 15:25:05;;;;;;;1.80;0.70;;;28.30;46.00;;;;;;4955431;29;20451;-71
2022/07/09 15:27:31;;;;;;;0.70;0.53;;;28.10;46.30;;;;;;4955614;29;20533;-71
2022/07/09 15:29:58;;;;;;;0.90;0.60;;;27.90;46.50;;;;;;4954934;28;20995;-71
2022/07/09 15:32:25;;;;;;;0.80;0.70;;;28.00;46.90;;;;;;4955489;29;20541;-71
2022/07/09 15:34:53;;;;;;;0.70;0.50;;;28.10;46.10;;;;;;4955678;29;20486;-72
2022/07/09 15:37:19;;;;;;;0.70;0.60;;;28.10;47.00;;;;;;4955564;29;20451;-72
2022/07/09 15:39:46;;;;;;;0.70;0.50;;;28.10;47.00;;;;;;4955445;29;20867;-71
2022/07/09 15:42:13;;;;;;;0.70;0.60;;;27.90;47.60;;;;;;4955476;29;20530;-73
2022/07/09 15:44:39;;;;;;;0.80;0.70;;;27.90;47.80;;;;;;4955156;29;20938;-72
2022/07/09 15:47:06;;;;;;;0.70;0.60;;;27.90;47.90;;;;;;4955277;29;20929;-72
2022/07/09 15:49:33;;;;;;;1.00;0.60;;;27.80;47.70;;;;;;4955295;29;20490;-73